createdAt,value
2022-08-26T00:01:37.487Z,20.40
2022-08-26T00:04:03.767Z,20.39
2022-08-26T00:06:30.739Z,20.37
2022-08-26T00:08:57.516Z,20.36
2022-08-26T00:11:26.810Z,20.35
2022-08-26T00:13:53.461Z,20.30
2022-08-26T00:16:19.835Z,20.27
2022-08-26T00:18:46.281Z,20.24
2022-08-26T00:21:12.602Z,20.22
2022-08-26T00:23:39.387Z,20.21
2022-08-26T00:26:06.474Z,20.20
2022-08-26T00:28:34.838Z,20.19
2022-08-26T00:31:01.194Z,20.18
2022-08-26T00:33:27.523Z,20.18
2022-08-26T00:35:53.863Z,20.14
2022-08-26T00:38:20.339Z,20.13
2022-08-26T00:40:46.796Z,20.11
2022-08-26T00:43:13.102Z,20.09
2022-08-26T00:45:41.533Z,20.08
2022-08-26T00:48:08.957Z,20.07
2022-08-26T00:50:35.371Z,20.05
2022-08-26T00:53:01.634Z,20.02
2022-08-26T00:55:37.845Z,20.02
2022-08-26T00:58:04.365Z,19.99
2022-08-26T01:00:30.675Z,19.97
2022-08-26T01:02:57.589Z,19.95
2022-08-26T01:05:24.172Z,19.96
2022-08-26T01:07:50.441Z,19.94
2022-08-26T01:10:16.795Z,19.93
2022-08-26T01:12:43.069Z,19.91
2022-08-26T01:15:09.452Z,19.91
2022-08-26T01:17:36.353Z,19.89
2022-08-26T01:20:02.739Z,19.89
2022-08-26T01:22:29.293Z,19.87
2022-08-26T01:24:55.848Z,19.87
2022-08-26T01:27:22.461Z,19.86
2022-08-26T01:29:49.682Z,19.84
2022-08-26T01:32:15.942Z,19.84
2022-08-26T01:34:42.200Z,19.84
2022-08-26T01:37:08.497Z,19.81
2022-08-26T01:39:40.315Z,19.80
2022-08-26T01:42:10.443Z,19.78
2022-08-26T01:44:36.904Z,19.74
2022-08-26T01:47:03.373Z,19.72
2022-08-26T01:49:32.872Z,19.72
2022-08-26T01:52:00.732Z,19.70
2022-08-26T01:54:27.039Z,19.69
2022-08-26T01:56:53.426Z,19.69
2022-08-26T01:59:19.745Z,19.67
2022-08-26T02:01:46.726Z,19.67
2022-08-26T02:04:13.354Z,19.66
2022-08-26T02:06:39.656Z,19.62
2022-08-26T02:09:06.164Z,19.60
2022-08-26T02:11:32.674Z,19.60
2022-08-26T02:13:59.037Z,19.62
2022-08-26T02:16:25.447Z,19.60
2022-08-26T02:18:53.325Z,19.58
2022-08-26T02:21:19.742Z,19.56
2022-08-26T02:23:50.534Z,19.55
2022-08-26T02:26:18.050Z,19.54
2022-08-26T02:28:45.799Z,19.52
2022-08-26T02:31:12.578Z,19.52
2022-08-26T02:33:43.166Z,19.50
2022-08-26T02:36:09.651Z,19.51
2022-08-26T02:38:38.642Z,19.49
2022-08-26T02:41:06.176Z,19.49
2022-08-26T02:43:34.451Z,19.51
2022-08-26T02:46:02.152Z,19.51
2022-08-26T02:48:29.062Z,19.53
2022-08-26T02:50:55.378Z,19.54
2022-08-26T02:53:25.250Z,19.54
2022-08-26T02:55:52.021Z,19.54
2022-08-26T02:58:18.349Z,19.54
2022-08-26T03:00:53.321Z,19.54
2022-08-26T03:03:20.026Z,19.52
2022-08-26T03:05:48.939Z,19.50
2022-08-26T03:08:15.413Z,19.50
2022-08-26T03:10:41.897Z,19.50
2022-08-26T03:13:08.374Z,19.48
2022-08-26T03:15:34.939Z,19.47
2022-08-26T03:18:01.303Z,19.46
2022-08-26T03:20:27.712Z,19.44
2022-08-26T03:22:53.992Z,19.42
2022-08-26T03:25:22.537Z,19.41
2022-08-26T03:27:50.135Z,19.39
2022-08-26T03:30:16.456Z,19.36
2022-08-26T03:32:42.928Z,19.36
2022-08-26T03:35:09.297Z,19.36
2022-08-26T03:37:35.747Z,19.35
2022-08-26T03:40:02.352Z,19.34
2022-08-26T03:42:28.712Z,19.31
2022-08-26T03:44:55.113Z,19.31
2022-08-26T03:47:21.467Z,19.30
2022-08-26T03:49:47.789Z,19.28
2022-08-26T03:52:14.217Z,19.24
2022-08-26T03:54:40.550Z,19.23
2022-08-26T03:57:09.827Z,19.22
2022-08-26T03:59:36.156Z,19.20
2022-08-26T04:02:03.291Z,19.20
2022-08-26T04:04:34.968Z,19.20
2022-08-26T04:07:01.268Z,19.18
2022-08-26T04:09:27.747Z,19.16
2022-08-26T04:11:54.059Z,19.15
2022-08-26T04:14:20.415Z,19.13
2022-08-26T04:16:46.725Z,19.10
2022-08-26T04:19:13.314Z,19.09
2022-08-26T04:21:39.604Z,19.09
2022-08-26T04:24:09.222Z,19.08
2022-08-26T04:26:39.356Z,19.07
2022-08-26T04:29:08.919Z,19.08
2022-08-26T04:31:35.250Z,19.10
2022-08-26T04:34:01.619Z,19.12
2022-08-26T04:36:27.841Z,19.13
2022-08-26T04:38:55.528Z,19.14
2022-08-26T04:41:21.769Z,19.18
2022-08-26T04:43:48.007Z,19.18
2022-08-26T04:46:14.367Z,19.20
2022-08-26T04:48:40.762Z,19.23
2022-08-26T04:51:07.414Z,19.24
2022-08-26T04:53:34.141Z,19.27
2022-08-26T04:56:00.777Z,19.29
2022-08-26T04:58:27.013Z,19.30
2022-08-26T05:00:53.283Z,19.31
2022-08-26T05:03:20.032Z,19.34
2022-08-26T05:05:46.272Z,19.37
2022-08-26T05:08:12.572Z,19.42
2022-08-26T05:10:38.968Z,19.45
2022-08-26T05:13:11.149Z,19.48
2022-08-26T05:15:38.451Z,19.53
2022-08-26T05:18:04.717Z,19.57
2022-08-26T05:20:30.944Z,19.61
2022-08-26T05:22:57.177Z,19.64
2022-08-26T05:25:23.544Z,19.68
2022-08-26T05:27:53.618Z,19.69
2022-08-26T05:30:19.918Z,19.73
2022-08-26T05:32:46.166Z,19.77
2022-08-26T05:35:12.402Z,19.82
2022-08-26T05:37:38.625Z,19.85
2022-08-26T05:40:05.002Z,19.89
2022-08-26T05:42:31.306Z,19.91
2022-08-26T05:44:57.639Z,19.96
2022-08-26T05:47:24.444Z,20.00
2022-08-26T05:49:51.674Z,20.05
2022-08-26T05:52:18.139Z,20.08
2022-08-26T05:54:45.125Z,20.12
2022-08-26T05:57:14.009Z,20.15
2022-08-26T05:59:40.227Z,20.18
2022-08-26T06:02:08.194Z,20.21
2022-08-26T06:04:35.013Z,20.22
2022-08-26T06:07:01.344Z,20.24
2022-08-26T06:09:27.858Z,20.29
2022-08-26T06:11:54.133Z,20.33
2022-08-26T06:14:20.377Z,20.39
2022-08-26T06:16:46.594Z,20.42
2022-08-26T06:19:12.819Z,20.50
2022-08-26T06:21:39.043Z,20.57
2022-08-26T06:24:05.270Z,20.65
2022-08-26T06:26:31.535Z,20.72
2022-08-26T06:28:57.828Z,20.79
2022-08-26T06:31:24.086Z,20.89
2022-08-26T06:33:50.541Z,20.98
2022-08-26T06:36:16.759Z,21.07
2022-08-26T06:38:44.891Z,21.16
2022-08-26T06:41:11.107Z,21.23
2022-08-26T06:43:37.335Z,21.32
2022-08-26T06:46:04.264Z,21.40
2022-08-26T06:48:31.303Z,21.51
2022-08-26T06:50:57.624Z,21.60
2022-08-26T06:53:24.579Z,21.69
2022-08-26T06:55:51.882Z,21.79
2022-08-26T06:58:18.209Z,21.86
2022-08-26T07:00:47.240Z,21.94
2022-08-26T07:03:14.042Z,22.02
2022-08-26T07:05:40.383Z,22.11
2022-08-26T07:08:06.633Z,22.19
2022-08-26T07:10:32.916Z,22.27
2022-08-26T07:12:59.295Z,22.33
2022-08-26T07:15:31.037Z,22.40
2022-08-26T07:17:57.867Z,22.47
2022-08-26T07:20:24.282Z,22.54
2022-08-26T07:22:51.509Z,22.60
2022-08-26T07:25:17.889Z,22.67
2022-08-26T07:27:45.994Z,22.75
2022-08-26T07:30:20.396Z,22.83
2022-08-26T07:32:46.654Z,22.88
2022-08-26T07:35:13.030Z,22.96
2022-08-26T07:37:39.571Z,23.03
2022-08-26T07:40:05.996Z,23.10
2022-08-26T07:42:33.422Z,23.18
2022-08-26T07:45:01.087Z,23.26
2022-08-26T07:47:27.457Z,23.32
2022-08-26T07:49:53.736Z,23.40
2022-08-26T07:52:25.992Z,23.44
2022-08-26T07:54:53.274Z,23.50
2022-08-26T07:57:19.620Z,23.58
2022-08-26T07:59:47.439Z,23.67
2022-08-26T08:02:13.744Z,23.75
2022-08-26T08:04:40.036Z,23.85
2022-08-26T08:07:07.421Z,23.92
2022-08-26T08:09:37.946Z,23.99
2022-08-26T08:12:07.075Z,24.07
2022-08-26T08:14:33.499Z,24.14
2022-08-26T08:16:59.839Z,24.21
2022-08-26T08:19:33.086Z,24.29
2022-08-26T08:22:04.389Z,24.37
2022-08-26T08:24:43.403Z,24.44
2022-08-26T08:27:10.328Z,24.50
2022-08-26T08:29:36.817Z,24.54
2022-08-26T08:32:03.290Z,24.58
2022-08-26T08:34:30.620Z,24.63
2022-08-26T08:36:57.127Z,24.65
2022-08-26T08:39:23.822Z,24.69
2022-08-26T08:41:50.048Z,24.72
2022-08-26T08:44:17.689Z,24.75
2022-08-26T08:46:44.243Z,24.75
2022-08-26T08:49:10.593Z,24.82
2022-08-26T08:51:36.965Z,24.90
2022-08-26T08:54:03.673Z,25.01
2022-08-26T08:56:30.477Z,25.12
2022-08-26T08:58:56.952Z,25.21
2022-08-26T09:01:23.306Z,25.33
2022-08-26T09:03:49.564Z,25.40
2022-08-26T09:06:15.793Z,25.46
2022-08-26T09:08:42.702Z,25.55
2022-08-26T09:11:08.957Z,25.65
2022-08-26T09:13:35.919Z,25.73
2022-08-26T09:16:02.146Z,25.80
2022-08-26T09:18:28.392Z,25.86
2022-08-26T09:20:54.619Z,25.93
2022-08-26T09:23:20.869Z,26.02
2022-08-26T09:25:47.117Z,26.09
2022-08-26T09:28:13.893Z,26.14
2022-08-26T09:30:41.979Z,26.24
2022-08-26T09:33:11.195Z,26.30
2022-08-26T09:35:37.635Z,26.36
2022-08-26T09:38:05.442Z,26.41
2022-08-26T09:40:35.452Z,26.45
2022-08-26T09:43:02.149Z,26.47
2022-08-26T09:45:30.413Z,26.52
2022-08-26T09:47:56.725Z,26.54
2022-08-26T09:50:29.118Z,26.57
2022-08-26T09:52:55.667Z,26.58
2022-08-26T09:55:21.957Z,26.62
2022-08-26T09:57:48.328Z,26.66
2022-08-26T10:00:14.661Z,26.73
2022-08-26T10:02:41.066Z,26.77
2022-08-26T10:05:13.874Z,26.80
2022-08-26T10:07:40.176Z,26.85
2022-08-26T10:10:06.633Z,26.86
2022-08-26T10:12:32.964Z,26.90
2022-08-26T10:14:59.895Z,26.92
2022-08-26T10:17:26.726Z,26.96
2022-08-26T10:19:57.590Z,27.00
2022-08-26T10:22:24.236Z,27.01
2022-08-26T10:24:54.499Z,27.04
2022-08-26T10:27:21.393Z,27.11
2022-08-26T10:29:47.719Z,27.19
2022-08-26T10:32:14.095Z,27.25
2022-08-26T10:34:40.751Z,27.29
2022-08-26T10:37:13.696Z,27.34
2022-08-26T10:39:41.540Z,27.41
2022-08-26T10:42:07.868Z,27.48
2022-08-26T10:44:37.188Z,27.53
2022-08-26T10:47:03.451Z,27.57
2022-08-26T10:49:31.585Z,27.65
2022-08-26T10:51:58.428Z,27.72
2022-08-26T10:54:24.884Z,27.66
2022-08-26T10:56:51.564Z,27.61
2022-08-26T10:59:19.061Z,27.49
2022-08-26T11:01:47.094Z,27.39
2022-08-26T11:04:17.200Z,27.30
2022-08-26T11:06:43.688Z,27.19
2022-08-26T11:09:10.036Z,27.08
2022-08-26T11:11:36.364Z,26.97
2022-08-26T11:14:02.807Z,26.91
2022-08-26T11:16:29.170Z,26.86
2022-08-26T11:18:55.640Z,26.80
2022-08-26T11:21:22.280Z,26.77
2022-08-26T11:23:55.085Z,26.73
2022-08-26T11:26:35.970Z,26.70
2022-08-26T11:29:13.449Z,26.67
2022-08-26T11:31:40.183Z,26.61
2022-08-26T11:34:06.597Z,26.60
2022-08-26T11:36:33.045Z,26.49
2022-08-26T11:39:00.053Z,26.35
2022-08-26T11:41:26.360Z,26.06
2022-08-26T11:43:52.798Z,25.71
2022-08-26T11:46:19.375Z,24.85
2022-08-26T11:48:45.736Z,24.00
2022-08-26T11:51:12.161Z,23.07
2022-08-26T11:53:39.829Z,22.73
2022-08-26T11:56:06.074Z,22.51
2022-08-26T11:58:32.389Z,22.00
2022-08-26T12:00:58.591Z,21.02
2022-08-26T12:03:24.926Z,20.68
2022-08-26T12:05:51.234Z,20.62
2022-08-26T12:08:17.562Z,20.63
2022-08-26T12:10:43.833Z,20.57
2022-08-26T12:13:10.209Z,20.37
2022-08-26T12:15:36.742Z,19.98
2022-08-26T12:18:03.020Z,19.96
2022-08-26T12:20:29.306Z,19.85
2022-08-26T12:22:55.679Z,19.86
2022-08-26T12:25:22.171Z,19.96
2022-08-26T12:27:53.104Z,20.10
2022-08-26T12:30:20.182Z,20.17
2022-08-26T12:32:56.649Z,20.27
2022-08-26T12:35:24.644Z,20.39
2022-08-26T12:37:51.126Z,20.36
2022-08-26T12:40:17.758Z,20.32
2022-08-26T12:42:44.183Z,20.31
2022-08-26T12:45:10.472Z,20.28
2022-08-26T12:47:43.343Z,20.23
2022-08-26T12:50:09.961Z,20.21
2022-08-26T12:52:36.304Z,20.18
2022-08-26T12:55:02.833Z,20.15
2022-08-26T12:57:29.120Z,20.14
2022-08-26T12:59:55.452Z,20.12
2022-08-26T13:02:21.802Z,20.02
2022-08-26T13:04:48.113Z,19.88
2022-08-26T13:07:14.521Z,19.72
2022-08-26T13:09:40.900Z,19.65
2022-08-26T13:12:09.412Z,19.56
2022-08-26T13:14:35.740Z,19.47
2022-08-26T13:17:01.959Z,19.41
2022-08-26T13:19:28.217Z,19.33
2022-08-26T13:21:54.692Z,19.26
2022-08-26T13:24:20.983Z,19.23
2022-08-26T13:26:47.407Z,19.21
2022-08-26T13:29:13.764Z,19.19
2022-08-26T13:31:40.139Z,19.20
2022-08-26T13:34:06.397Z,19.25
2022-08-26T13:36:32.673Z,19.35
2022-08-26T13:38:58.909Z,19.48
2022-08-26T13:41:29.405Z,19.60
2022-08-26T13:43:56.215Z,19.69
2022-08-26T13:46:22.792Z,19.76
2022-08-26T13:48:49.131Z,19.81
2022-08-26T13:51:15.353Z,19.82
2022-08-26T13:53:41.653Z,19.80
2022-08-26T13:56:11.057Z,19.79
2022-08-26T13:58:37.519Z,19.79
2022-08-26T14:01:03.884Z,19.81
2022-08-26T14:03:30.373Z,19.85
2022-08-26T14:05:56.864Z,19.88
2022-08-26T14:08:23.151Z,19.94
2022-08-26T14:10:49.480Z,19.92
2022-08-26T14:13:16.088Z,19.94
2022-08-26T14:15:42.606Z,19.98
2022-08-26T14:18:08.904Z,19.95
2022-08-26T14:20:35.231Z,19.85
2022-08-26T14:23:13.569Z,19.84
2022-08-26T14:25:40.409Z,19.85
2022-08-26T14:28:06.750Z,19.85
2022-08-26T14:30:33.047Z,19.83
2022-08-26T14:32:59.370Z,19.83
2022-08-26T14:35:25.645Z,19.85
2022-08-26T14:37:52.077Z,19.86
2022-08-26T14:40:18.502Z,19.79
2022-08-26T14:42:49.529Z,19.73
2022-08-26T14:45:19.517Z,19.63
2022-08-26T14:47:46.032Z,19.61
2022-08-26T14:50:12.409Z,19.55
2022-08-26T14:52:39.405Z,19.55
2022-08-26T14:55:05.753Z,19.47
2022-08-26T14:57:32.048Z,19.39
2022-08-26T14:59:58.544Z,19.38
2022-08-26T15:02:32.871Z,19.35
2022-08-26T15:04:59.953Z,19.27
2022-08-26T15:07:26.384Z,19.24
2022-08-26T15:09:52.666Z,19.15
2022-08-26T15:12:18.898Z,19.11
2022-08-26T15:14:46.045Z,19.11
2022-08-26T15:17:12.347Z,19.09
2022-08-26T15:19:38.836Z,19.03
2022-08-26T15:22:05.072Z,19.00
2022-08-26T15:24:31.355Z,18.99
2022-08-26T15:26:57.705Z,18.98
2022-08-26T15:29:24.029Z,19.01
2022-08-26T15:31:50.255Z,19.07
2022-08-26T15:34:17.284Z,19.08
2022-08-26T15:36:43.609Z,19.09
2022-08-26T15:39:09.856Z,19.10
2022-08-26T15:41:36.209Z,19.12
2022-08-26T15:44:03.440Z,19.13
2022-08-26T15:46:29.938Z,19.14
2022-08-26T15:48:56.608Z,19.16
2022-08-26T15:51:22.928Z,19.14
2022-08-26T15:53:49.271Z,19.13
2022-08-26T15:56:15.596Z,19.11
2022-08-26T15:58:42.344Z,19.12
2022-08-26T16:01:10.907Z,19.12
2022-08-26T16:03:37.156Z,19.12
2022-08-26T16:06:03.503Z,19.07
2022-08-26T16:08:30.125Z,19.08
2022-08-26T16:11:03.918Z,19.09
2022-08-26T16:13:30.289Z,19.10
2022-08-26T16:16:06.292Z,19.08
2022-08-26T16:18:35.104Z,19.08
2022-08-26T16:21:13.406Z,19.08
2022-08-26T16:23:40.364Z,19.16
2022-08-26T16:26:10.690Z,19.14
2022-08-26T16:28:37.144Z,19.19
2022-08-26T16:31:04.786Z,19.19
2022-08-26T16:33:31.379Z,19.22
2022-08-26T16:35:57.750Z,19.20
2022-08-26T16:38:24.088Z,19.15
2022-08-26T16:40:50.528Z,19.13
2022-08-26T16:43:16.889Z,19.11
2022-08-26T16:45:43.232Z,19.10
2022-08-26T16:48:09.722Z,19.10
2022-08-26T16:50:36.186Z,19.12
2022-08-26T16:53:02.504Z,19.12
2022-08-26T16:55:29.164Z,19.10
2022-08-26T16:57:55.487Z,19.10
2022-08-26T17:00:21.895Z,19.11
2022-08-26T17:02:48.379Z,19.10
2022-08-26T17:05:14.811Z,19.10
2022-08-26T17:07:41.092Z,19.11
2022-08-26T17:10:07.502Z,19.11
2022-08-26T17:12:33.756Z,19.12
2022-08-26T17:15:00.003Z,19.15
2022-08-26T17:17:26.222Z,19.16
2022-08-26T17:19:52.553Z,19.16
2022-08-26T17:22:18.954Z,19.18
2022-08-26T17:24:45.214Z,19.19
2022-08-26T17:27:11.498Z,19.19
2022-08-26T17:29:37.777Z,19.20
2022-08-26T17:32:04.007Z,19.19
2022-08-26T17:34:30.322Z,19.19
2022-08-26T17:36:56.849Z,19.20
2022-08-26T17:39:23.324Z,19.19
2022-08-26T17:41:49.612Z,19.18
2022-08-26T17:44:15.981Z,19.18
2022-08-26T17:46:42.718Z,19.16
2022-08-26T17:49:09.073Z,19.15
2022-08-26T17:51:35.567Z,19.15
2022-08-26T17:54:01.820Z,19.14
2022-08-26T17:56:28.198Z,19.13
2022-08-26T17:58:54.491Z,19.11
2022-08-26T18:01:21.535Z,19.07
2022-08-26T18:03:47.994Z,19.03
2022-08-26T18:06:14.430Z,19.02
2022-08-26T18:08:40.893Z,19.01
2022-08-26T18:11:07.251Z,18.99
2022-08-26T18:13:33.859Z,18.99
2022-08-26T18:16:00.171Z,18.98
2022-08-26T18:18:26.743Z,18.96
2022-08-26T18:21:01.735Z,18.94
2022-08-26T18:23:28.601Z,18.94
2022-08-26T18:25:57.832Z,18.91
2022-08-26T18:28:24.122Z,18.86
2022-08-26T18:30:50.704Z,18.84
2022-08-26T18:33:16.991Z,18.83
2022-08-26T18:35:43.392Z,18.82
2022-08-26T18:38:11.095Z,18.80
2022-08-26T18:40:38.156Z,18.78
2022-08-26T18:43:04.620Z,18.77
2022-08-26T18:45:31.192Z,18.73
2022-08-26T18:47:57.749Z,18.69
2022-08-26T18:50:24.355Z,18.67
2022-08-26T18:52:50.951Z,18.68
2022-08-26T18:55:17.398Z,18.66
2022-08-26T18:57:43.725Z,18.64
2022-08-26T19:00:10.173Z,18.65
2022-08-26T19:02:36.617Z,18.66
2022-08-26T19:05:04.600Z,18.67
2022-08-26T19:07:30.941Z,18.68
2022-08-26T19:09:57.256Z,18.67
2022-08-26T19:12:23.532Z,18.69
2022-08-26T19:14:53.375Z,18.70
2022-08-26T19:17:19.658Z,18.70
2022-08-26T19:19:48.907Z,18.71
2022-08-26T19:22:15.192Z,18.70
2022-08-26T19:24:41.537Z,18.72
2022-08-26T19:27:11.659Z,18.73
2022-08-26T19:29:40.567Z,18.73
2022-08-26T19:32:06.879Z,18.73
2022-08-26T19:34:33.362Z,18.74
2022-08-26T19:36:59.580Z,18.73
2022-08-26T19:39:25.963Z,18.73
2022-08-26T19:41:52.345Z,18.72
2022-08-26T19:44:18.611Z,18.70
2022-08-26T19:46:44.905Z,18.69
2022-08-26T19:49:11.266Z,18.70
2022-08-26T19:51:37.896Z,18.70
2022-08-26T19:54:04.211Z,18.67
2022-08-26T19:56:30.789Z,18.69
2022-08-26T19:58:57.145Z,18.70
2022-08-26T20:01:23.490Z,18.70
2022-08-26T20:03:49.902Z,18.70
2022-08-26T20:06:16.165Z,18.68
2022-08-26T20:08:42.477Z,18.65
2022-08-26T20:11:11.657Z,18.63
2022-08-26T20:13:38.089Z,18.64
2022-08-26T20:16:04.433Z,18.62
2022-08-26T20:18:30.764Z,18.64
2022-08-26T20:20:57.223Z,18.64
2022-08-26T20:23:23.538Z,18.65
2022-08-26T20:25:49.989Z,18.64
2022-08-26T20:28:16.328Z,18.62
2022-08-26T20:30:42.548Z,18.62
2022-08-26T20:33:08.934Z,18.61
2022-08-26T20:35:35.260Z,18.59
2022-08-26T20:38:01.609Z,18.59
2022-08-26T20:40:28.013Z,18.58
2022-08-26T20:42:54.381Z,18.59
2022-08-26T20:45:20.836Z,18.59
2022-08-26T20:47:47.172Z,18.59
2022-08-26T20:50:13.448Z,18.60
2022-08-26T20:52:39.906Z,18.62
2022-08-26T20:55:06.219Z,18.64
2022-08-26T20:57:32.559Z,18.65
2022-08-26T20:59:59.188Z,18.66
2022-08-26T21:02:25.696Z,18.62
2022-08-26T21:04:52.211Z,18.62
2022-08-26T21:07:18.594Z,18.61
2022-08-26T21:09:46.166Z,18.59
2022-08-26T21:12:12.557Z,18.58
2022-08-26T21:14:38.946Z,18.59
2022-08-26T21:17:05.228Z,18.59
2022-08-26T21:19:33.994Z,18.62
2022-08-26T21:22:00.264Z,18.62
2022-08-26T21:24:26.536Z,18.61
2022-08-26T21:26:52.827Z,18.61
2022-08-26T21:29:19.134Z,18.62
2022-08-26T21:31:46.714Z,18.63
2022-08-26T21:34:13.277Z,18.63
2022-08-26T21:36:39.588Z,18.63
2022-08-26T21:39:10.771Z,18.63
2022-08-26T21:41:37.975Z,18.62
2022-08-26T21:44:04.281Z,18.59
2022-08-26T21:46:30.586Z,18.58
2022-08-26T21:48:56.866Z,18.58
2022-08-26T21:51:24.227Z,18.57
2022-08-26T21:53:50.573Z,18.56
2022-08-26T21:56:16.959Z,18.53
2022-08-26T21:58:43.279Z,18.51
2022-08-26T22:01:09.651Z,18.49
2022-08-26T22:03:37.808Z,18.48
2022-08-26T22:06:13.496Z,18.46
2022-08-26T22:08:39.834Z,18.44
2022-08-26T22:11:06.138Z,18.42
2022-08-26T22:13:32.541Z,18.40
2022-08-26T22:15:58.809Z,18.38
2022-08-26T22:18:25.177Z,18.37
2022-08-26T22:20:51.534Z,18.37
2022-08-26T22:23:18.059Z,18.33
2022-08-26T22:25:44.344Z,18.29
2022-08-26T22:28:10.741Z,18.28
2022-08-26T22:30:37.481Z,18.25
2022-08-26T22:33:03.836Z,18.24
2022-08-26T22:35:30.113Z,18.23
2022-08-26T22:37:57.141Z,18.22
2022-08-26T22:40:23.651Z,18.22
2022-08-26T22:42:55.637Z,18.21
2022-08-26T22:45:26.351Z,18.23
2022-08-26T22:47:57.013Z,18.22
2022-08-26T22:50:23.317Z,18.22
2022-08-26T22:52:49.647Z,18.22
2022-08-26T22:55:15.948Z,18.22
2022-08-26T22:57:42.255Z,18.22
2022-08-26T23:00:08.796Z,18.22
2022-08-26T23:02:37.724Z,18.22
2022-08-26T23:05:04.170Z,18.24
2022-08-26T23:07:30.486Z,18.25
2022-08-26T23:09:56.699Z,18.25
2022-08-26T23:12:22.942Z,18.26
2022-08-26T23:14:49.171Z,18.25
2022-08-26T23:17:15.447Z,18.24
2022-08-26T23:19:41.763Z,18.25
2022-08-26T23:22:08.102Z,18.22
2022-08-26T23:24:34.448Z,18.20
2022-08-26T23:27:00.744Z,18.16
2022-08-26T23:29:27.147Z,18.14
2022-08-26T23:31:53.578Z,18.14
2022-08-26T23:34:19.923Z,18.16
2022-08-26T23:36:47.018Z,18.16
2022-08-26T23:39:13.329Z,18.17
2022-08-26T23:41:39.677Z,18.18
2022-08-26T23:44:05.971Z,18.18
2022-08-26T23:46:32.296Z,18.18
2022-08-26T23:48:58.580Z,18.20
2022-08-26T23:51:24.877Z,18.20
2022-08-26T23:53:51.194Z,18.18
2022-08-26T23:56:17.643Z,18.17
2022-08-26T23:58:44.073Z,18.17
